createdAt,value
2018-08-03T00:00:54.729Z,4.00
2018-08-03T00:01:54.746Z,4.00
2018-08-03T00:02:54.746Z,4.00
2018-08-03T00:03:54.754Z,4.00
2018-08-03T00:04:54.762Z,4.00
2018-08-03T00:05:54.767Z,4.00
2018-08-03T00:06:54.773Z,4.00
2018-08-03T00:07:54.798Z,4.00
2018-08-03T00:08:54.793Z,4.00
2018-08-03T00:09:54.807Z,4.00
2018-08-03T00:10:54.808Z,4.00
2018-08-03T00:11:54.816Z,4.00
2018-08-03T00:12:54.827Z,4.00
2018-08-03T00:13:54.824Z,4.00
2018-08-03T00:14:54.835Z,4.00
2018-08-03T00:15:54.847Z,4.00
2018-08-03T00:16:54.856Z,4.00
2018-08-03T00:17:54.857Z,4.00
2018-08-03T00:18:54.865Z,4.00
2018-08-03T00:19:54.876Z,4.00
2018-08-03T00:20:54.885Z,4.00
2018-08-03T00:21:54.894Z,4.00
2018-08-03T00:22:54.895Z,4.00
2018-08-03T00:23:54.901Z,4.00
2018-08-03T00:24:54.919Z,4.00
2018-08-03T00:25:54.917Z,4.00
2018-08-03T00:26:54.935Z,4.00
2018-08-03T00:27:54.932Z,4.00
2018-08-03T00:28:54.940Z,4.00
2018-08-03T00:29:54.965Z,4.00
2018-08-03T00:30:54.960Z,4.00
2018-08-03T00:31:54.958Z,4.00
2018-08-03T00:32:54.968Z,4.00
2018-08-03T00:33:54.979Z,4.00
2018-08-03T00:34:54.993Z,4.00
2018-08-03T00:35:54.994Z,4.00
2018-08-03T00:36:55.003Z,4.00
2018-08-03T00:37:55.008Z,4.00
2018-08-03T00:38:55.037Z,4.00
2018-08-03T00:39:55.033Z,4.00
2018-08-03T00:40:55.042Z,4.00
2018-08-03T00:41:55.036Z,4.00
2018-08-03T00:42:55.053Z,4.00
2018-08-03T00:43:55.057Z,4.00
2018-08-03T00:44:55.068Z,4.00
2018-08-03T00:45:55.082Z,4.00
2018-08-03T00:46:55.070Z,4.00
2018-08-03T00:47:55.091Z,4.00
2018-08-03T00:48:56.985Z,4.00
2018-08-03T00:49:55.109Z,4.00
2018-08-03T00:50:55.101Z,4.00
2018-08-03T00:51:55.120Z,4.00
2018-08-03T00:52:55.120Z,4.00
2018-08-03T00:53:55.133Z,4.00
2018-08-03T00:54:55.143Z,4.00
2018-08-03T00:55:55.152Z,4.00
2018-08-03T00:56:55.149Z,4.00
2018-08-03T00:57:55.161Z,4.00
2018-08-03T00:58:55.168Z,4.00
2018-08-03T00:59:55.176Z,4.00
2018-08-03T01:00:55.179Z,4.00
2018-08-03T01:01:55.188Z,4.00
2018-08-03T01:02:55.198Z,4.00
2018-08-03T01:03:55.199Z,4.00
2018-08-03T01:04:55.206Z,4.00
2018-08-03T01:05:55.223Z,4.00
2018-08-03T01:06:55.232Z,4.00
2018-08-03T01:07:55.234Z,4.00
2018-08-03T01:08:55.237Z,4.00
2018-08-03T01:09:55.244Z,4.00
2018-08-03T01:10:55.252Z,4.00
2018-08-03T01:11:55.259Z,4.00
2018-08-03T01:12:55.318Z,4.00
2018-08-03T01:13:55.301Z,4.00
2018-08-03T01:14:55.285Z,4.00
2018-08-03T01:15:55.289Z,4.00
2018-08-03T01:16:55.294Z,4.00
2018-08-03T01:17:55.304Z,4.00
2018-08-03T01:18:55.301Z,4.00
2018-08-03T01:19:55.322Z,4.00
2018-08-03T01:20:55.317Z,4.00
2018-08-03T01:21:55.336Z,4.00
2018-08-03T01:22:55.359Z,4.00
2018-08-03T01:23:55.344Z,4.00
2018-08-03T01:24:55.354Z,4.00
2018-08-03T01:25:56.991Z,4.00
2018-08-03T01:26:55.360Z,4.00
2018-08-03T01:27:55.405Z,4.00
2018-08-03T01:28:55.404Z,4.00
2018-08-03T01:29:55.389Z,4.00
2018-08-03T01:30:55.391Z,4.00
2018-08-03T01:31:55.402Z,4.00
2018-08-03T01:32:55.407Z,4.00
2018-08-03T01:33:55.427Z,4.00
2018-08-03T01:34:55.417Z,4.00
2018-08-03T01:35:55.430Z,4.00
2018-08-03T01:36:55.438Z,4.00
2018-08-03T01:37:55.490Z,4.00
2018-08-03T01:38:55.451Z,4.00
2018-08-03T01:39:55.461Z,4.00
2018-08-03T01:40:55.469Z,4.00
2018-08-03T01:41:55.471Z,4.00
2018-08-03T01:42:58.000Z,4.00
2018-08-03T01:43:55.483Z,4.00
2018-08-03T01:44:55.499Z,4.00
2018-08-03T01:45:55.498Z,4.00
2018-08-03T01:46:55.515Z,4.00
2018-08-03T01:47:55.512Z,4.00
2018-08-03T01:48:55.524Z,4.00
2018-08-03T01:49:55.523Z,4.00
2018-08-03T01:50:55.535Z,4.00
2018-08-03T01:51:55.541Z,4.00
2018-08-03T01:52:55.547Z,4.00
2018-08-03T01:53:55.559Z,4.00
2018-08-03T01:54:55.558Z,4.00
2018-08-03T01:55:55.572Z,4.00
2018-08-03T01:56:55.574Z,4.00
2018-08-03T01:57:57.530Z,4.00
2018-08-03T01:58:55.587Z,4.00
2018-08-03T01:59:55.598Z,4.00
2018-08-03T02:00:55.599Z,4.00
2018-08-03T02:01:55.621Z,4.00
2018-08-03T02:02:55.612Z,4.00
2018-08-03T02:03:55.629Z,4.00
2018-08-03T02:04:55.626Z,4.00
2018-08-03T02:05:55.643Z,4.00
2018-08-03T02:06:55.654Z,4.00
2018-08-03T02:07:55.652Z,4.00
2018-08-03T02:08:55.664Z,4.00
2018-08-03T02:09:55.672Z,4.00
2018-08-03T02:10:57.612Z,4.00
2018-08-03T02:11:55.684Z,4.00
2018-08-03T02:12:55.689Z,4.00
2018-08-03T02:13:55.694Z,4.00
2018-08-03T02:14:55.702Z,4.00
2018-08-03T02:15:55.758Z,4.00
2018-08-03T02:16:55.714Z,4.00
2018-08-03T02:17:55.731Z,4.00
2018-08-03T02:18:56.521Z,4.00
2018-08-03T02:19:55.735Z,4.00
2018-08-03T02:20:55.750Z,4.00
2018-08-03T02:21:55.746Z,4.00
2018-08-03T02:22:55.755Z,4.00
2018-08-03T02:23:55.767Z,4.00
2018-08-03T02:24:55.773Z,4.00
2018-08-03T02:25:55.772Z,4.00
2018-08-03T02:26:55.781Z,4.00
2018-08-03T02:27:55.789Z,4.00
2018-08-03T02:28:55.799Z,4.00
2018-08-03T02:29:55.799Z,4.00
2018-08-03T02:30:55.816Z,4.00
2018-08-03T02:31:55.821Z,4.00
2018-08-03T02:32:55.822Z,4.00
2018-08-03T02:33:55.834Z,4.00
2018-08-03T02:34:55.839Z,4.00
2018-08-03T02:35:55.858Z,4.00
2018-08-03T02:36:55.860Z,4.00
2018-08-03T02:37:55.855Z,4.00
2018-08-03T02:38:56.522Z,4.00
2018-08-03T02:39:55.883Z,4.00
2018-08-03T02:40:55.883Z,4.00
2018-08-03T02:41:55.879Z,4.00
2018-08-03T02:42:55.886Z,4.00
2018-08-03T02:43:55.901Z,4.00
2018-08-03T02:44:55.908Z,4.00
2018-08-03T02:45:55.903Z,4.00
2018-08-03T02:46:55.910Z,4.00
2018-08-03T02:47:55.927Z,4.00
2018-08-03T02:48:55.933Z,4.00
2018-08-03T02:49:55.935Z,4.00
2018-08-03T02:50:55.943Z,4.00
2018-08-03T02:51:55.953Z,4.00
2018-08-03T02:52:55.954Z,4.00
2018-08-03T02:53:55.962Z,4.00
2018-08-03T02:54:55.972Z,4.00
2018-08-03T02:55:55.977Z,4.00
2018-08-03T02:56:55.982Z,4.00
2018-08-03T02:57:55.995Z,4.00
2018-08-03T02:58:55.999Z,4.00
2018-08-03T02:59:56.003Z,4.00
2018-08-03T03:00:56.002Z,4.00
2018-08-03T03:01:56.022Z,4.00
2018-08-03T03:02:56.030Z,4.00
2018-08-03T03:03:56.023Z,4.00
2018-08-03T03:04:56.033Z,4.00
2018-08-03T03:05:56.044Z,4.00
2018-08-03T03:06:56.047Z,0.00
2018-08-03T03:07:56.054Z,0.00
2018-08-03T03:08:56.065Z,4.00
2018-08-03T03:09:56.068Z,4.00
2018-08-03T03:10:56.071Z,4.00
2018-08-03T03:11:56.076Z,4.00
2018-08-03T03:12:56.090Z,4.00
2018-08-03T03:13:56.095Z,4.00
2018-08-03T03:14:56.103Z,4.00
2018-08-03T03:15:56.108Z,4.00
2018-08-03T03:16:56.113Z,4.00
2018-08-03T03:17:56.120Z,4.00
2018-08-03T03:18:56.127Z,8.00
2018-08-03T03:19:56.136Z,4.00
2018-08-03T03:20:56.141Z,8.00
2018-08-03T03:21:56.167Z,8.00
2018-08-03T03:22:56.152Z,4.00
2018-08-03T03:23:56.162Z,8.00
2018-08-03T03:24:56.161Z,8.00
2018-08-03T03:25:56.172Z,8.00
2018-08-03T03:26:56.176Z,8.00
2018-08-03T03:27:56.182Z,8.00
2018-08-03T03:28:56.197Z,8.00
2018-08-03T03:29:56.198Z,16.00
2018-08-03T03:30:56.200Z,16.00
2018-08-03T03:31:56.214Z,16.00
2018-08-03T03:32:56.211Z,16.00
2018-08-03T03:33:56.228Z,16.00
2018-08-03T03:34:56.229Z,20.00
2018-08-03T03:35:56.237Z,24.00
2018-08-03T03:36:56.298Z,24.00
2018-08-03T03:37:56.248Z,28.00
2018-08-03T03:38:56.256Z,32.00
2018-08-03T03:39:56.259Z,36.00
2018-08-03T03:40:56.270Z,36.00
2018-08-03T03:41:56.275Z,44.00
2018-08-03T03:42:56.281Z,44.00
2018-08-03T03:43:57.057Z,52.00
2018-08-03T03:44:56.291Z,60.00
2018-08-03T03:45:56.302Z,64.00
2018-08-03T03:46:56.309Z,72.00
2018-08-03T03:47:56.312Z,76.00
2018-08-03T03:48:56.315Z,88.00
2018-08-03T03:49:56.331Z,96.00
2018-08-03T03:50:56.368Z,104.00
2018-08-03T03:51:56.339Z,112.00
2018-08-03T03:52:56.336Z,120.00
2018-08-03T03:53:56.357Z,132.00
2018-08-03T03:54:57.052Z,140.00
2018-08-03T03:55:56.362Z,152.00
2018-08-03T03:56:56.368Z,160.00
2018-08-03T03:57:56.373Z,176.00
2018-08-03T03:58:56.377Z,188.00
2018-08-03T03:59:56.387Z,200.00
2018-08-03T04:00:56.389Z,216.00
2018-08-03T04:01:56.400Z,228.00
2018-08-03T04:02:56.398Z,240.00
2018-08-03T04:03:56.478Z,260.00
2018-08-03T04:04:56.412Z,276.00
2018-08-03T04:05:56.428Z,292.00
2018-08-03T04:06:56.434Z,308.00
2018-08-03T04:07:56.440Z,328.00
2018-08-03T04:08:56.440Z,352.00
2018-08-03T04:09:56.450Z,368.00
2018-08-03T04:10:56.463Z,388.00
2018-08-03T04:11:56.459Z,412.00
2018-08-03T04:12:56.465Z,436.00
2018-08-03T04:13:56.475Z,456.00
2018-08-03T04:14:56.475Z,480.00
2018-08-03T04:15:56.482Z,504.00
2018-08-03T04:16:56.500Z,528.00
2018-08-03T04:17:56.503Z,556.00
2018-08-03T04:18:56.507Z,584.00
2018-08-03T04:19:56.516Z,612.00
2018-08-03T04:20:56.520Z,656.00
2018-08-03T04:21:56.533Z,684.00
2018-08-03T04:22:56.529Z,696.00
2018-08-03T04:23:56.541Z,724.00
2018-08-03T04:24:56.544Z,756.00
2018-08-03T04:25:56.548Z,784.00
2018-08-03T04:26:56.555Z,812.00
2018-08-03T04:27:56.565Z,844.00
2018-08-03T04:28:56.570Z,872.00
2018-08-03T04:29:56.582Z,908.00
2018-08-03T04:30:56.584Z,936.00
2018-08-03T04:31:56.588Z,968.00
2018-08-03T04:32:56.612Z,1012.00
2018-08-03T04:33:56.602Z,1032.00
2018-08-03T04:34:56.608Z,1068.00
2018-08-03T04:35:56.616Z,1100.00
2018-08-03T04:36:56.619Z,1128.00
2018-08-03T04:37:56.624Z,1160.00
2018-08-03T04:38:56.680Z,1196.00
2018-08-03T04:39:56.703Z,1224.00
2018-08-03T04:40:56.650Z,1256.00
2018-08-03T04:41:56.649Z,1292.00
2018-08-03T04:42:56.696Z,1324.00
2018-08-03T04:43:56.684Z,1352.00
2018-08-03T04:44:56.766Z,1384.00
2018-08-03T04:45:56.769Z,1416.00
2018-08-03T04:46:56.800Z,1448.00
2018-08-03T04:47:56.823Z,1480.00
2018-08-03T04:48:56.867Z,1512.00
2018-08-03T04:49:56.714Z,1544.00
2018-08-03T04:50:56.786Z,1580.00
2018-08-03T04:51:56.748Z,1612.00
2018-08-03T04:52:56.847Z,1648.00
2018-08-03T04:53:56.735Z,1676.00
2018-08-03T04:54:56.755Z,1716.00
2018-08-03T04:55:56.752Z,1748.00
2018-08-03T04:56:56.824Z,1780.00
2018-08-03T04:57:56.831Z,1816.00
2018-08-03T04:58:56.775Z,1852.00
2018-08-03T04:59:56.775Z,1892.00
2018-08-03T05:00:57.672Z,1928.00
2018-08-03T05:01:56.799Z,1968.00
2018-08-03T05:02:56.880Z,2008.00
2018-08-03T05:03:56.894Z,2040.00
2018-08-03T05:04:56.847Z,2080.00
2018-08-03T05:05:56.821Z,2108.00
2018-08-03T05:06:56.899Z,2152.00
2018-08-03T05:07:56.904Z,2188.00
2018-08-03T05:08:56.978Z,2228.00
2018-08-03T05:09:57.007Z,2260.00
2018-08-03T05:10:56.841Z,2300.00
2018-08-03T05:11:56.982Z,2344.00
2018-08-03T05:12:57.764Z,2376.00
2018-08-03T05:13:56.917Z,2420.00
2018-08-03T05:14:57.029Z,2464.00
2018-08-03T05:15:56.976Z,2504.00
2018-08-03T05:16:56.957Z,2540.00
2018-08-03T05:17:56.951Z,2584.00
2018-08-03T05:18:56.921Z,2620.00
2018-08-03T05:19:56.981Z,2660.00
2018-08-03T05:20:57.578Z,2696.00
2018-08-03T05:21:57.011Z,2736.00
2018-08-03T05:22:56.934Z,2772.00
2018-08-03T05:23:56.930Z,2812.00
2018-08-03T05:24:57.060Z,2876.00
2018-08-03T05:25:56.944Z,2896.00
2018-08-03T05:26:57.086Z,2944.00
2018-08-03T05:27:57.046Z,2988.00
2018-08-03T05:28:57.125Z,3032.00
2018-08-03T05:29:57.054Z,3076.00
2018-08-03T05:30:57.105Z,3120.00
2018-08-03T05:31:57.058Z,3168.00
2018-08-03T05:32:57.076Z,3224.00
2018-08-03T05:33:57.084Z,3272.00
2018-08-03T05:34:57.043Z,3324.00
2018-08-03T05:35:57.172Z,3384.00
2018-08-03T05:36:57.059Z,3448.00
2018-08-03T05:37:57.042Z,3532.00
2018-08-03T05:38:57.103Z,4764.00
2018-08-03T05:39:57.065Z,7780.00
2018-08-03T05:40:57.151Z,10300.00
2018-08-03T05:41:57.099Z,10752.00
2018-08-03T05:42:57.069Z,10892.00
2018-08-03T05:43:57.100Z,11048.00
2018-08-03T05:44:57.110Z,11312.00
2018-08-03T05:45:57.223Z,11616.00
2018-08-03T05:46:58.059Z,11828.00
2018-08-03T05:47:57.228Z,11940.00
2018-08-03T05:48:57.198Z,12084.00
2018-08-03T05:49:57.176Z,12272.00
2018-08-03T05:50:57.179Z,12416.00
2018-08-03T05:51:57.154Z,12672.00
2018-08-03T05:52:57.192Z,12960.00
2018-08-03T05:53:57.176Z,13056.00
2018-08-03T05:54:57.211Z,13120.00
2018-08-03T05:55:57.197Z,13184.00
2018-08-03T05:56:57.223Z,13344.00
2018-08-03T05:57:57.262Z,13664.00
2018-08-03T05:58:57.349Z,14016.00
2018-08-03T05:59:57.254Z,14240.00
2018-08-03T06:00:57.250Z,14176.00
2018-08-03T06:01:57.291Z,14240.00
2018-08-03T06:02:57.270Z,14336.00
2018-08-03T06:03:57.286Z,14464.00
2018-08-03T06:04:57.301Z,14688.00
2018-08-03T06:05:57.309Z,14880.00
2018-08-03T06:06:57.322Z,15168.00
2018-08-03T06:07:57.329Z,15392.00
2018-08-03T06:08:57.344Z,15712.00
2018-08-03T06:09:57.354Z,15872.00
2018-08-03T06:10:57.389Z,16064.00
2018-08-03T06:11:57.411Z,16160.00
2018-08-03T06:12:57.445Z,16288.00
2018-08-03T06:13:57.468Z,16416.00
2018-08-03T06:14:57.457Z,16544.00
2018-08-03T06:15:57.462Z,16736.00
2018-08-03T06:16:57.478Z,16832.00
2018-08-03T06:17:57.593Z,16864.00
2018-08-03T06:18:57.593Z,17120.00
2018-08-03T06:19:57.507Z,17184.00
2018-08-03T06:20:57.518Z,17248.00
2018-08-03T06:21:57.546Z,17344.00
2018-08-03T06:22:57.545Z,17376.00
2018-08-03T06:23:57.577Z,17536.00
2018-08-03T06:24:57.600Z,17536.00
2018-08-03T06:25:57.626Z,17632.00
2018-08-03T06:26:57.670Z,17664.00
2018-08-03T06:27:57.725Z,17792.00
2018-08-03T06:28:57.667Z,17952.00
2018-08-03T06:29:57.657Z,18368.00
2018-08-03T06:30:57.685Z,18784.00
2018-08-03T06:31:57.816Z,19008.00
2018-08-03T06:32:57.828Z,19008.00
2018-08-03T06:33:58.613Z,19168.00
2018-08-03T06:34:57.732Z,19488.00
2018-08-03T06:35:57.847Z,19648.00
2018-08-03T06:36:58.051Z,19712.00
2018-08-03T06:37:57.782Z,19776.00
2018-08-03T06:38:57.929Z,19872.00
2018-08-03T06:39:58.002Z,19808.00
2018-08-03T06:40:57.942Z,20000.00
2018-08-03T06:41:57.959Z,20032.00
2018-08-03T06:42:57.986Z,20000.00
2018-08-03T06:43:57.961Z,19936.00
2018-08-03T06:44:57.942Z,19776.00
2018-08-03T06:45:57.925Z,19744.00
2018-08-03T06:46:58.056Z,19872.00
2018-08-03T06:47:57.974Z,19840.00
2018-08-03T06:48:58.063Z,19872.00
2018-08-03T06:49:58.083Z,20096.00
2018-08-03T06:51:01.009Z,20384.00
2018-08-03T06:51:58.588Z,20704.00
2018-08-03T06:52:58.634Z,20768.00
2018-08-03T06:53:58.161Z,20896.00
2018-08-03T06:54:58.119Z,20896.00
2018-08-03T06:55:58.117Z,20928.00
2018-08-03T06:56:58.233Z,20992.00
2018-08-03T06:57:58.299Z,21248.00
2018-08-03T06:58:58.702Z,21376.00
2018-08-03T06:59:58.265Z,21696.00
2018-08-03T07:00:58.300Z,21824.00
2018-08-03T07:01:58.987Z,22048.00
2018-08-03T07:02:58.387Z,22240.00
2018-08-03T07:03:58.402Z,22336.00
2018-08-03T07:04:58.413Z,22560.00
2018-08-03T07:05:58.286Z,22688.00
2018-08-03T07:06:58.423Z,22976.00
2018-08-03T07:07:58.838Z,22816.00
2018-08-03T07:08:58.343Z,22944.00
2018-08-03T07:09:58.377Z,22944.00
2018-08-03T07:10:58.376Z,22944.00
2018-08-03T07:11:58.410Z,22880.00
2018-08-03T07:12:58.423Z,22912.00
2018-08-03T07:13:58.496Z,23008.00
2018-08-03T07:14:58.529Z,23168.00
2018-08-03T07:15:58.478Z,23296.00
2018-08-03T07:16:58.504Z,23264.00
2018-08-03T07:17:58.531Z,23072.00
2018-08-03T07:18:58.538Z,22816.00
2018-08-03T07:19:58.582Z,22720.00
2018-08-03T07:20:58.596Z,22784.00
2018-08-03T07:21:58.603Z,22944.00
2018-08-03T07:22:58.625Z,23616.00
2018-08-03T07:23:58.683Z,23648.00
2018-08-03T07:24:58.657Z,23392.00
2018-08-03T07:25:58.748Z,23424.00
2018-08-03T07:26:58.705Z,23552.00
2018-08-03T07:27:58.722Z,23392.00
2018-08-03T07:28:59.635Z,23232.00
2018-08-03T07:29:58.768Z,23072.00
2018-08-03T07:30:58.792Z,22944.00
2018-08-03T07:31:58.806Z,23040.00
2018-08-03T07:32:58.881Z,23264.00
2018-08-03T07:33:58.850Z,23712.00
2018-08-03T07:34:58.873Z,24000.00
2018-08-03T07:35:58.882Z,24192.00
2018-08-03T07:36:58.947Z,24128.00
2018-08-03T07:37:58.938Z,24096.00
2018-08-03T07:38:58.958Z,24064.00
2018-08-03T07:39:58.995Z,24224.00
2018-08-03T07:40:58.997Z,24256.00
2018-08-03T07:41:59.018Z,24128.00
2018-08-03T07:42:59.143Z,23936.00
2018-08-03T07:43:59.068Z,23808.00
2018-08-03T07:44:59.116Z,23712.00
2018-08-03T07:45:59.108Z,23840.00
2018-08-03T07:46:59.122Z,23968.00
2018-08-03T07:47:59.150Z,24128.00
2018-08-03T07:48:59.172Z,24224.00
2018-08-03T07:49:59.203Z,24256.00
2018-08-03T07:50:59.216Z,24384.00
2018-08-03T07:51:59.244Z,24352.00
2018-08-03T07:52:59.255Z,24480.00
2018-08-03T07:53:59.284Z,24864.00
2018-08-03T07:54:59.301Z,24928.00
2018-08-03T07:55:59.321Z,25056.00
2018-08-03T07:56:59.347Z,25696.00
2018-08-03T07:58:00.141Z,25760.00
2018-08-03T07:58:59.401Z,25344.00
2018-08-03T07:59:59.424Z,24608.00
2018-08-03T08:00:59.440Z,24512.00
2018-08-03T08:01:59.471Z,24288.00
2018-08-03T08:02:59.477Z,24416.00
2018-08-03T08:03:59.515Z,24640.00
2018-08-03T08:04:59.532Z,25120.00
2018-08-03T08:05:59.605Z,25152.00
2018-08-03T08:06:59.587Z,25152.00
2018-08-03T08:07:59.653Z,24768.00
2018-08-03T08:08:59.618Z,24992.00
2018-08-03T08:09:59.661Z,25056.00
2018-08-03T08:10:59.680Z,25248.00
2018-08-03T08:11:59.682Z,26048.00
2018-08-03T08:12:59.717Z,25408.00
2018-08-03T08:13:59.736Z,25536.00
2018-08-03T08:14:59.759Z,25504.00
2018-08-03T08:15:59.804Z,25504.00
2018-08-03T08:16:59.862Z,25536.00
2018-08-03T08:17:59.830Z,25952.00
2018-08-03T08:18:59.854Z,25312.00
2018-08-03T08:19:59.881Z,25472.00
2018-08-03T08:20:59.898Z,25600.00
2018-08-03T08:21:59.927Z,25760.00
2018-08-03T08:22:59.940Z,25504.00
2018-08-03T08:23:59.979Z,25216.00
2018-08-03T08:24:59.989Z,24640.00
2018-08-03T08:26:00.057Z,24512.00
2018-08-03T08:27:00.042Z,24672.00
2018-08-03T08:28:00.064Z,24832.00
2018-08-03T08:29:00.091Z,25056.00
2018-08-03T08:30:00.122Z,24992.00
2018-08-03T08:31:00.146Z,24960.00
2018-08-03T08:32:00.160Z,25120.00
2018-08-03T08:33:00.189Z,24928.00
2018-08-03T08:34:00.208Z,25216.00
2018-08-03T08:35:00.260Z,24864.00
2018-08-03T08:36:00.259Z,24576.00
2018-08-03T08:37:00.300Z,24512.00
2018-08-03T08:38:00.303Z,24576.00
2018-08-03T08:39:00.327Z,24416.00
2018-08-03T08:40:00.353Z,24256.00
2018-08-03T08:41:00.388Z,24064.00
2018-08-03T08:42:00.398Z,24160.00
2018-08-03T08:43:00.436Z,24064.00
2018-08-03T08:44:00.485Z,24160.00
2018-08-03T08:45:00.477Z,24128.00
2018-08-03T08:46:00.495Z,24000.00
2018-08-03T08:47:00.526Z,23776.00
2018-08-03T08:48:00.614Z,24032.00
2018-08-03T08:49:00.683Z,23648.00
2018-08-03T08:50:00.633Z,23648.00
2018-08-03T08:51:00.663Z,23616.00
2018-08-03T08:52:00.670Z,23584.00
2018-08-03T08:53:01.672Z,23648.00
2018-08-03T08:54:00.707Z,23520.00
2018-08-03T08:55:00.735Z,23488.00
2018-08-03T08:56:00.839Z,23392.00
2018-08-03T08:57:00.848Z,23488.00
2018-08-03T08:58:00.886Z,23520.00
2018-08-03T08:59:00.834Z,23456.00
2018-08-03T09:00:00.839Z,23296.00
2018-08-03T09:01:00.951Z,23264.00
2018-08-03T09:02:00.913Z,23072.00
2018-08-03T09:03:00.964Z,22912.00
2018-08-03T09:04:00.968Z,23040.00
2018-08-03T09:05:00.974Z,23040.00
2018-08-03T09:06:00.992Z,23104.00
2018-08-03T09:07:01.010Z,22880.00
2018-08-03T09:08:01.042Z,22784.00
2018-08-03T09:09:01.065Z,22464.00
2018-08-03T09:10:01.096Z,22304.00
2018-08-03T09:11:01.113Z,22144.00
2018-08-03T09:12:01.146Z,21824.00
2018-08-03T09:13:01.220Z,20960.00
2018-08-03T09:14:01.189Z,20672.00
2018-08-03T09:15:01.221Z,20192.00
2018-08-03T09:16:01.236Z,19776.00
2018-08-03T09:17:01.269Z,19744.00
2018-08-03T09:18:01.285Z,19616.00
2018-08-03T09:19:01.315Z,19584.00
2018-08-03T09:20:01.343Z,19648.00
2018-08-03T09:21:01.370Z,19680.00
2018-08-03T09:22:01.457Z,19680.00
2018-08-03T09:23:01.417Z,19744.00
2018-08-03T09:24:01.437Z,20000.00
2018-08-03T09:25:01.468Z,19872.00
2018-08-03T09:26:01.500Z,20160.00
2018-08-03T09:27:01.521Z,20256.00
2018-08-03T09:28:01.536Z,20384.00
2018-08-03T09:29:01.558Z,20544.00
2018-08-03T09:30:01.596Z,20640.00
2018-08-03T09:31:01.700Z,20864.00
2018-08-03T09:32:01.643Z,20928.00
2018-08-03T09:33:01.663Z,20992.00
2018-08-03T09:34:01.694Z,20992.00
2018-08-03T09:35:01.714Z,20864.00
2018-08-03T09:36:01.740Z,20448.00
2018-08-03T09:37:01.764Z,20672.00
2018-08-03T09:38:01.790Z,20480.00
2018-08-03T09:39:01.818Z,20544.00
2018-08-03T09:40:01.842Z,20576.00
2018-08-03T09:41:01.863Z,20448.00
2018-08-03T09:42:01.917Z,20384.00
2018-08-03T09:43:01.969Z,20192.00
2018-08-03T09:44:01.945Z,20256.00
2018-08-03T09:45:01.981Z,20160.00
2018-08-03T09:46:01.994Z,20288.00
2018-08-03T09:47:02.020Z,20096.00
2018-08-03T09:48:02.037Z,20000.00
2018-08-03T09:49:02.086Z,20128.00
2018-08-03T09:50:02.093Z,20192.00
2018-08-03T09:51:02.118Z,20096.00
2018-08-03T09:52:02.142Z,20000.00
2018-08-03T09:53:02.166Z,19840.00
2018-08-03T09:54:02.196Z,19936.00
2018-08-03T09:55:02.240Z,19840.00
2018-08-03T09:56:02.252Z,19744.00
2018-08-03T09:57:02.275Z,19680.00
2018-08-03T09:58:02.300Z,19680.00
2018-08-03T09:59:02.314Z,19328.00
2018-08-03T10:00:02.352Z,19552.00
2018-08-03T10:01:02.378Z,19488.00
2018-08-03T10:02:02.401Z,19424.00
2018-08-03T10:03:02.417Z,18528.00
2018-08-03T10:04:02.452Z,19072.00
2018-08-03T10:05:02.471Z,19072.00
2018-08-03T10:06:02.511Z,19040.00
2018-08-03T10:07:02.521Z,19136.00
2018-08-03T10:08:02.556Z,18848.00
2018-08-03T10:09:02.572Z,19104.00
2018-08-03T10:10:02.598Z,19072.00
2018-08-03T10:11:02.626Z,19040.00
2018-08-03T10:12:02.662Z,19040.00
2018-08-03T10:13:02.679Z,19104.00
2018-08-03T10:14:02.700Z,19168.00
2018-08-03T10:15:02.733Z,19104.00
2018-08-03T10:16:02.747Z,19168.00
2018-08-03T10:17:02.781Z,19200.00
2018-08-03T10:18:02.798Z,19328.00
2018-08-03T10:19:02.827Z,19424.00
2018-08-03T10:20:02.853Z,19360.00
2018-08-03T10:21:02.883Z,19296.00
2018-08-03T10:22:02.903Z,19008.00
2018-08-03T10:23:02.948Z,19392.00
2018-08-03T10:24:02.951Z,19264.00
2018-08-03T10:25:02.983Z,19040.00
2018-08-03T10:26:03.005Z,18848.00
2018-08-03T10:27:03.041Z,19104.00
2018-08-03T10:28:03.073Z,19104.00
2018-08-03T10:29:03.086Z,19040.00
2018-08-03T10:30:03.114Z,19232.00
2018-08-03T10:31:03.126Z,19328.00
2018-08-03T10:32:03.159Z,19392.00
2018-08-03T10:33:03.181Z,19360.00
2018-08-03T10:34:03.212Z,19264.00
2018-08-03T10:35:03.251Z,19328.00
2018-08-03T10:36:03.261Z,19296.00
2018-08-03T10:37:03.281Z,19136.00
2018-08-03T10:38:03.309Z,19488.00
2018-08-03T10:39:03.333Z,19520.00
2018-08-03T10:40:03.359Z,19328.00
2018-08-03T10:41:03.380Z,19200.00
2018-08-03T10:42:03.407Z,19104.00
2018-08-03T10:43:03.448Z,18912.00
2018-08-03T10:44:03.467Z,18880.00
2018-08-03T10:45:03.607Z,18784.00
2018-08-03T10:46:03.510Z,18528.00
2018-08-03T10:47:03.542Z,18560.00
2018-08-03T10:48:03.547Z,18080.00
2018-08-03T10:49:03.582Z,18048.00
2018-08-03T10:50:03.598Z,18016.00
2018-08-03T10:51:03.633Z,18112.00
2018-08-03T10:52:03.657Z,18144.00
2018-08-03T10:53:03.682Z,18176.00
2018-08-03T10:54:03.707Z,17984.00
2018-08-03T10:55:03.729Z,18080.00
2018-08-03T10:56:03.785Z,18208.00
2018-08-03T10:57:03.770Z,17984.00
2018-08-03T10:58:03.797Z,17888.00
2018-08-03T10:59:03.823Z,17888.00
2018-08-03T11:00:03.852Z,17632.00
2018-08-03T11:01:03.877Z,17536.00
2018-08-03T11:02:03.890Z,17472.00
2018-08-03T11:03:03.923Z,17536.00
2018-08-03T11:04:03.943Z,17632.00
2018-08-03T11:05:03.970Z,17600.00
2018-08-03T11:06:03.984Z,17280.00
2018-08-03T11:07:04.010Z,17152.00
2018-08-03T11:08:04.040Z,16992.00
2018-08-03T11:09:04.068Z,16608.00
2018-08-03T11:10:04.111Z,16608.00
2018-08-03T11:11:04.114Z,16252.00
2018-08-03T11:12:04.129Z,16352.00
2018-08-03T11:13:04.154Z,16212.00
2018-08-03T11:14:04.181Z,16640.00
2018-08-03T11:15:04.200Z,16392.00
2018-08-03T11:16:04.251Z,16352.00
2018-08-03T11:17:04.263Z,16576.00
2018-08-03T11:18:04.265Z,16640.00
2018-08-03T11:19:04.305Z,16480.00
2018-08-03T11:20:04.310Z,16280.00
2018-08-03T11:21:04.327Z,16228.00
2018-08-03T11:22:04.401Z,7064.00
2018-08-03T11:23:04.402Z,14480.00
2018-08-03T11:24:04.425Z,12056.00
2018-08-03T11:25:04.427Z,9380.00
2018-08-03T11:26:04.483Z,11228.00
2018-08-03T11:27:04.465Z,14076.00
2018-08-03T11:28:04.487Z,7356.00
2018-08-03T11:29:04.545Z,13040.00
2018-08-03T11:30:04.592Z,7264.00
2018-08-03T11:31:04.562Z,7148.00
2018-08-03T11:32:04.572Z,13176.00
2018-08-03T11:33:04.603Z,7960.00
2018-08-03T11:34:04.610Z,6884.00
2018-08-03T11:35:04.670Z,6604.00
2018-08-03T11:36:04.651Z,6624.00
2018-08-03T11:37:04.707Z,6612.00
2018-08-03T11:38:04.694Z,6740.00
2018-08-03T11:39:04.718Z,8336.00
2018-08-03T11:40:04.740Z,14304.00
2018-08-03T11:41:04.749Z,9632.00
2018-08-03T11:42:04.767Z,13532.00
2018-08-03T11:43:04.785Z,13728.00
2018-08-03T11:44:04.807Z,10072.00
2018-08-03T11:45:04.831Z,6548.00
2018-08-03T11:46:04.862Z,6708.00
2018-08-03T11:47:04.872Z,9824.00
2018-08-03T11:48:04.884Z,13056.00
2018-08-03T11:49:04.902Z,12932.00
2018-08-03T11:50:04.930Z,13140.00
2018-08-03T11:51:04.943Z,12892.00
2018-08-03T11:52:04.955Z,12916.00
2018-08-03T11:53:05.019Z,12884.00
2018-08-03T11:54:05.047Z,12948.00
2018-08-03T11:55:05.032Z,12940.00
2018-08-03T11:56:05.039Z,12928.00
2018-08-03T11:57:05.063Z,12796.00
2018-08-03T11:58:05.070Z,12792.00
2018-08-03T11:59:05.097Z,13160.00
2018-08-03T12:00:05.108Z,13056.00
2018-08-03T12:01:05.125Z,11656.00
2018-08-03T12:02:05.155Z,8960.00
2018-08-03T12:03:05.185Z,7488.00
2018-08-03T12:04:05.207Z,5864.00
2018-08-03T12:05:05.208Z,5904.00
2018-08-03T12:06:05.240Z,7068.00
2018-08-03T12:07:05.255Z,7200.00
2018-08-03T12:08:05.263Z,7252.00
2018-08-03T12:09:05.274Z,6120.00
2018-08-03T12:10:05.312Z,6652.00
2018-08-03T12:11:05.359Z,7376.00
2018-08-03T12:12:05.327Z,7372.00
2018-08-03T12:13:05.351Z,7508.00
2018-08-03T12:14:05.363Z,7568.00
2018-08-03T12:15:05.385Z,7640.00
2018-08-03T12:16:05.395Z,7440.00
2018-08-03T12:17:05.422Z,7420.00